Aeroporto :
LOGIN :

Iscrizione | Disclaimer

   EN    FR    IT 

 










Sommario :    VFR   VFR Marginale   IFR   IFR Intensivo   IFR Molto Intensivo
Visibilità : 
Base nubi : 
>= 8 km
>= 3000ft
5 / 8 km
1000 / 3000 ft
1500m / 5 km
500 / 1000 ft
800 / 1500m
200 / 500 ft
< 800m
< 200 ft
Simboli :   Temporali  Nebbia  Neve Forte  Precipitazioni Forti  Vento > 20 kt
SIGMETs :   Varie  Temporali  Ghiacco  Turbolenza  Onda orograficha  Ceneri Vulcaniche







- Altitudine del aeroporto : 75 ft
- Codice IATA : YEO


EGDY - RNAS Yeovilton

ULTIMO METAR :
  • 121450Z 15004KT 9999 FEW025 SCT080 BKN180 05/03 Q1009 BLU NOSIG

METARs OBSOLETI :
  • 121350Z 21005KT 9999 FEW025 SCT080 BKN180 05/03 Q1010 BLU NOSIG
  • 121250Z 24002KT 9999 FEW025 BKN180 05/03 Q1009 BLU NOSIG

TAF TAF EGDY
Valido dal 12 a 15 ore il 13 a 00 ore UTC


121345Z 1215/1224 21007KT 9999 SCT025
BECMG 1216/1219 8000 -RA FEW008 BKN020
TEMPO 1219/1224 4000 RA SCT008 BKN015
Nessun NOTAM noto per questo aeroporto.
1 SIGMET conosciuto per la FIR London (EGTT) :
 
Turbolenza severa
EGTT SIGMET 03 VALID 121500/121900 EGRR
EGTT LONDON FIR SEV TURB FCST WI N5100 W00726 - N5207 W00519 - N4934 W00416 - N4926 W00456 - N4901 W00703 - N5100 W00726 FL200/420 MOV E 05KT NC=



MetMap, La meteo Aeronautica in un colpo d'occhio ! - Copyright ORBIFLY Dicembre 2007 - Disclaimer

ORBIFLY MET'MAP TEAM :

Programmazione e sviluppo : Alexandra Zaïnal
Concezione e sviluppo : Baudouin d'Aumeries
Co-Programmazione e sviluppo : Marc-Olivier Méhu
Supporto tecnico e logistico : Manuel Goepfert
Aiuto per la traduzione : Arnaldo La Scala

Contatto : metmap@orbifly.com




FONTI E CREDITI :

   NOAA